»·PEaware :: N5413E KBFL-KMHV

N5413E :: KBFL-KMHV

FLIGHT INFORMATION

Flight Status: Arrived
Operator: Privately registered:
United States
More flights under this callsign
Pilot: Rob F. (20595)
Aircraft: CESSNA 172 SKYHAWK
(C172)
More flights by this aircraft type
Origin: KBFL Meadows
United States
Destination: KMHV Mojave
United States
More flights between these airports :: More routes between these airports
Route: DCT
File this flight plan on PilotEdge
Remarks: CAT 6
Altitude:
(Current/Filed)
7,500ft
Speed:
(Current/Filed)
120kts
Departed: 04-Oct-18 11:17 AM
Arrived: 04-Oct-18 11:48 AM
Distance/Time
Traveled:
49nm/0:31
Distance/Time
To Go:
Arrived

Flight Plot

Page will automatically refresh every two minutes.


Map Options




Map Legend


Flown Route
Filed Route
Departure Airport
Arrival Airport
Navaid (VOR, NDB)
Fix

Horizontal Profiles

Position Reports

Time Latitude Longitude Heading Altitude Ground
Speed
04-Oct-18 10:56 35.428256 -119.044974 0 510ft 0kts
04-Oct-18 10:57 35.428256 -119.044974 0 510ft 0kts
04-Oct-18 10:58 35.428256 -119.044974 0 510ft 0kts
04-Oct-18 10:59 35.428256 -119.044974 0 510ft 0kts
04-Oct-18 11:00 35.428256 -119.044974 0 510ft 0kts
04-Oct-18 11:01 35.428256 -119.044974 0 510ft 0kts
04-Oct-18 11:02 35.428256 -119.044974 0 510ft 0kts
04-Oct-18 11:03 35.428298 -119.044974 359 510ft 0kts
04-Oct-18 11:04 35.428301 -119.044974 359 510ft 0kts
04-Oct-18 11:05 35.428304 -119.044974 359 510ft 0kts
04-Oct-18 11:06 35.428305 -119.044974 359 510ft 0kts
04-Oct-18 11:07 35.428308 -119.044974 359 510ft 0kts
04-Oct-18 11:08 35.428310 -119.044974 359 510ft 0kts
04-Oct-18 11:09 35.428313 -119.044974 359 510ft 0kts
04-Oct-18 11:10 35.428315 -119.044974 359 510ft 0kts
04-Oct-18 11:11 35.428318 -119.044974 359 510ft 0kts
04-Oct-18 11:12 35.428320 -119.044974 359 510ft 0kts
04-Oct-18 11:13 35.428461 -119.045138 273 510ft 4kts
04-Oct-18 11:14 35.426740 -119.045366 135 510ft 12kts
04-Oct-18 11:15 35.425372 -119.044643 256 510ft 0kts
04-Oct-18 11:16 35.425372 -119.044647 256 510ft 0kts
04-Oct-18 11:17 35.425368 -119.044665 256 510ft 1kts
04-Oct-18 11:18 35.425905 -119.046609 314 510ft 28kts
04-Oct-18 11:19 35.439479 -119.063079 332 1189ft 83kts
04-Oct-18 11:20 35.438685 -119.044488 137 2184ft 84kts
04-Oct-18 11:21 35.421952 -119.024414 127 3183ft 97kts
04-Oct-18 11:22 35.407582 -118.992833 118 4191ft 103kts
04-Oct-18 11:23 35.395290 -118.963069 118 5205ft 98kts
04-Oct-18 11:24 35.383253 -118.933654 119 6195ft 87kts
04-Oct-18 11:25 35.372039 -118.906350 119 6918ft 102kts
04-Oct-18 11:26 35.360552 -118.878484 119 7491ft 117kts
04-Oct-18 11:27 35.343235 -118.836395 119 7539ft 111kts
04-Oct-18 11:28 35.329133 -118.802088 119 7542ft 115kts
04-Oct-18 11:29 35.314828 -118.767286 120 7561ft 108kts
04-Oct-18 11:30 35.303717 -118.740273 120 7563ft 112kts
04-Oct-18 11:31 35.289249 -118.705224 120 7611ft 110kts
04-Oct-18 11:32 35.273641 -118.667292 120 7621ft 102kts
04-Oct-18 11:33 35.262756 -118.640932 120 7627ft 109kts
04-Oct-18 11:34 35.248749 -118.607098 120 7641ft 113kts
04-Oct-18 11:35 35.232014 -118.566679 120 7650ft 115kts
04-Oct-18 11:36 35.219984 -118.537643 120 7656ft 115kts
04-Oct-18 11:37 35.205504 -118.502743 120 7662ft 114kts
04-Oct-18 11:38 35.191070 -118.467943 120 7665ft 114kts
04-Oct-18 11:39 35.176508 -118.432895 120 7667ft 115kts
04-Oct-18 11:40 35.161956 -118.397919 120 7667ft 115kts
04-Oct-18 11:41 35.147481 -118.362904 119 7663ft 115kts
04-Oct-18 11:42 35.132150 -118.326162 119 7214ft 122kts
04-Oct-18 11:43 35.117071 -118.290047 117 6403ft 118kts
04-Oct-18 11:44 35.102316 -118.254672 119 5610ft 115kts
04-Oct-18 11:45 35.087492 -118.219229 119 4811ft 118kts
04-Oct-18 11:46 35.072837 -118.183723 113 3934ft 106kts
04-Oct-18 11:47 35.074176 -118.150765 83 3586ft 78kts
04-Oct-18 11:48 35.075323 -118.121997 118 3464ft 86kts
04-Oct-18 11:49 35.059171 -118.129427 260 3022ft 74kts
04-Oct-18 11:50 35.059206 -118.149715 269 2794ft 31kts
04-Oct-18 11:51 35.058956 -118.157518 202 2794ft 11kts
04-Oct-18 11:52 35.058752 -118.157568 179 2794ft 0kts
04-Oct-18 11:53 35.057864 -118.157649 211 2794ft 6kts
04-Oct-18 11:54 35.057117 -118.158332 356 2794ft 0kts
04-Oct-18 11:55 35.057117 -118.158332 356 2794ft 0kts

Navigation Log

Ident Type
Flight plan parsing failed, navigation log unavailable